createdAt,value
2019-03-23T00:00:26.693Z,101724.33
2019-03-23T00:02:56.313Z,101729.36
2019-03-23T00:05:25.859Z,101727.20
2019-03-23T00:07:55.364Z,101735.75
2019-03-23T00:10:24.901Z,101735.81
2019-03-23T00:12:54.409Z,101733.66
2019-03-23T00:15:23.936Z,101725.73
2019-03-23T00:17:55.080Z,101737.06
2019-03-23T00:20:24.563Z,101737.12
2019-03-23T00:22:54.092Z,101736.91
2019-03-23T00:25:23.590Z,101736.66
2019-03-23T00:27:53.069Z,101738.64
2019-03-23T00:30:22.586Z,101736.52
2019-03-23T00:32:52.159Z,101739.59
2019-03-23T00:35:21.670Z,101740.45
2019-03-23T00:37:51.122Z,101739.97
2019-03-23T00:40:20.753Z,101751.24
2019-03-23T00:42:50.303Z,101748.28
2019-03-23T00:45:19.799Z,101752.45
2019-03-23T00:47:49.419Z,101752.77
2019-03-23T00:50:18.877Z,101754.73
2019-03-23T00:52:48.355Z,101759.73
2019-03-23T00:55:17.845Z,101758.09
2019-03-23T00:57:47.365Z,101760.06
2019-03-23T01:00:17.150Z,101758.47
2019-03-23T01:02:46.631Z,101756.03
2019-03-23T01:05:16.566Z,101759.92
2019-03-23T01:07:46.091Z,101766.27
2019-03-23T01:10:15.992Z,101759.70
2019-03-23T01:12:45.624Z,101759.19
2019-03-23T01:15:15.552Z,101760.59
2019-03-23T01:17:45.010Z,101758.46
2019-03-23T01:20:15.458Z,101765.89
2019-03-23T01:22:44.854Z,101761.25
2019-03-23T01:25:14.583Z,101761.29
2019-03-23T01:27:44.031Z,101761.59
2019-03-23T01:30:14.894Z,101762.43
2019-03-23T01:32:44.472Z,101757.78
2019-03-23T01:35:14.082Z,101758.35
2019-03-23T01:37:43.567Z,101759.76
2019-03-23T01:40:14.935Z,101764.70
2019-03-23T01:42:44.419Z,101756.52
2019-03-23T01:45:15.119Z,101763.63
2019-03-23T01:47:44.605Z,101768.58
2019-03-23T01:50:14.512Z,101771.89
2019-03-23T01:52:44.127Z,101770.28
2019-03-23T01:55:14.058Z,101765.36
2019-03-23T01:57:43.677Z,101773.31
2019-03-23T02:00:14.611Z,101776.09
2019-03-23T02:02:44.174Z,101771.17
2019-03-23T02:05:13.768Z,101773.09
2019-03-23T02:07:43.329Z,101775.30
2019-03-23T02:10:13.553Z,101771.48
2019-03-23T02:12:43.178Z,101781.63
2019-03-23T02:15:13.698Z,101772.06
2019-03-23T02:17:43.150Z,101779.75
2019-03-23T02:20:14.246Z,101778.67
2019-03-23T02:22:44.707Z,101784.70
2019-03-23T02:25:14.343Z,101789.91
2019-03-23T02:27:43.875Z,101792.13
2019-03-23T02:30:14.271Z,101792.66
2019-03-23T02:32:44.035Z,101793.21
2019-03-23T02:35:13.676Z,101806.09
2019-03-23T02:37:43.172Z,101806.92
2019-03-23T02:40:13.185Z,101811.58
2019-03-23T02:42:42.647Z,101814.61
2019-03-23T02:45:13.951Z,101823.11
2019-03-23T02:47:43.454Z,101822.85
2019-03-23T02:50:13.209Z,101826.67
2019-03-23T02:52:42.662Z,101828.59
2019-03-23T02:55:12.853Z,101821.20
2019-03-23T02:57:42.340Z,101824.76
2019-03-23T03:00:14.516Z,101831.05
2019-03-23T03:02:45.181Z,101824.23
2019-03-23T03:05:14.882Z,101831.34
2019-03-23T03:07:44.368Z,101829.16
2019-03-23T03:10:36.359Z,101825.59
2019-03-23T03:13:05.984Z,101835.17
2019-03-23T03:15:35.513Z,101830.78
2019-03-23T03:18:06.918Z,101837.91
2019-03-23T03:20:36.467Z,101836.27
2019-03-23T03:23:06.017Z,101839.81
2019-03-23T03:25:37.118Z,101848.28
2019-03-23T03:28:06.752Z,101851.84
2019-03-23T03:30:36.440Z,101855.94
2019-03-23T03:33:06.019Z,101859.77
2019-03-23T03:35:37.183Z,101863.87
2019-03-23T03:38:06.655Z,101866.05
2019-03-23T03:40:36.225Z,101869.05
2019-03-23T03:43:05.766Z,101870.95
2019-03-23T03:45:35.332Z,101871.72
2019-03-23T03:48:04.856Z,101875.53
2019-03-23T03:50:34.405Z,101876.89
2019-03-23T03:53:03.977Z,101874.93
2019-03-23T03:55:33.454Z,101873.23
2019-03-23T03:58:02.943Z,101876.80
2019-03-23T04:00:32.485Z,101874.03
2019-03-23T04:03:01.982Z,101868.48
2019-03-23T04:05:31.527Z,101879.39
2019-03-23T04:08:11.093Z,101877.19
2019-03-23T04:10:32.197Z,101876.31
2019-03-23T04:13:01.712Z,101869.95
2019-03-23T04:15:31.257Z,101886.91
2019-03-23T04:18:02.377Z,101883.29
2019-03-23T04:20:31.873Z,101888.75
2019-03-23T04:23:01.336Z,101888.97
2019-03-23T04:25:30.819Z,101894.42
2019-03-23T04:28:00.295Z,101888.89
2019-03-23T04:30:29.855Z,101898.19
2019-03-23T04:32:59.319Z,101900.66
2019-03-23T04:35:28.832Z,101898.98
2019-03-23T04:37:58.465Z,101895.39
2019-03-23T04:40:27.954Z,101904.13
2019-03-23T04:42:57.513Z,101902.74
2019-03-23T04:45:27.011Z,101907.66
2019-03-23T04:47:56.504Z,101909.56
2019-03-23T04:50:25.968Z,101921.89
2019-03-23T04:52:55.459Z,101917.50
2019-03-23T04:55:25.007Z,101926.00
2019-03-23T04:57:54.634Z,101925.95
2019-03-23T05:00:24.202Z,101925.95
2019-03-23T05:02:53.706Z,101922.90
2019-03-23T05:05:23.184Z,101931.67
2019-03-23T05:07:52.655Z,101936.06
2019-03-23T05:10:22.156Z,101935.52
2019-03-23T05:12:51.689Z,101936.33
2019-03-23T05:15:21.275Z,101947.59
2019-03-23T05:17:50.755Z,101948.96
2019-03-23T05:20:30.098Z,101960.22
2019-03-23T05:22:59.890Z,101955.56
2019-03-23T05:25:30.821Z,101958.58
2019-03-23T05:28:00.371Z,101954.19
2019-03-23T05:30:29.909Z,101956.36
2019-03-23T05:32:59.509Z,101956.09
2019-03-23T05:35:28.984Z,101959.64
2019-03-23T05:37:58.475Z,101962.13
2019-03-23T05:40:28.016Z,101962.08
2019-03-23T05:42:57.505Z,101967.84
2019-03-23T05:45:26.978Z,101964.82
2019-03-23T05:47:56.468Z,101959.02
2019-03-23T05:50:25.965Z,101972.48
2019-03-23T05:52:55.429Z,101971.92
2019-03-23T05:55:24.921Z,101965.87
2019-03-23T05:57:54.425Z,101975.50
2019-03-23T06:00:23.920Z,101965.30
2019-03-23T06:02:53.423Z,101971.06
2019-03-23T06:05:24.668Z,101969.42
2019-03-23T06:07:54.153Z,101976.82
2019-03-23T06:10:23.596Z,101966.89
2019-03-23T06:12:53.073Z,101977.62
2019-03-23T06:15:22.603Z,101972.12
2019-03-23T06:17:52.077Z,101979.78
2019-03-23T06:20:21.571Z,101987.73
2019-03-23T06:22:51.037Z,101987.98
2019-03-23T06:25:20.693Z,101991.53
2019-03-23T06:27:50.145Z,101990.69
2019-03-23T06:30:19.643Z,101986.52
2019-03-23T06:32:49.168Z,101985.94
2019-03-23T06:35:18.745Z,101996.08
2019-03-23T06:37:48.214Z,101987.82
2019-03-23T06:40:17.768Z,101983.14
2019-03-23T06:42:47.344Z,101983.94
2019-03-23T06:45:16.921Z,101989.39
2019-03-23T06:47:48.058Z,101989.92
2019-03-23T06:50:17.644Z,101986.32
2019-03-23T06:52:47.186Z,101985.73
2019-03-23T06:55:16.683Z,101992.60
2019-03-23T06:57:46.183Z,101995.30
2019-03-23T07:00:17.493Z,101991.70
2019-03-23T07:02:47.131Z,101993.86
2019-03-23T07:05:16.709Z,101996.02
2019-03-23T07:07:46.209Z,101993.26
2019-03-23T07:10:16.615Z,102001.47
2019-03-23T07:12:46.117Z,102004.75
2019-03-23T07:15:20.290Z,101998.12
2019-03-23T07:17:46.901Z,102005.54
2019-03-23T07:20:16.517Z,102000.28
2019-03-23T07:22:46.130Z,102008.49
2019-03-23T07:25:15.788Z,102007.36
2019-03-23T07:27:45.295Z,102005.40
2019-03-23T07:30:17.307Z,102007.56
2019-03-23T07:32:46.963Z,102003.95
2019-03-23T07:35:17.018Z,102005.86
2019-03-23T07:37:46.478Z,102008.28
2019-03-23T07:40:16.277Z,102009.07
2019-03-23T07:42:45.839Z,102012.61
2019-03-23T07:45:36.962Z,102011.76
2019-03-23T07:48:06.478Z,102019.69
2019-03-23T07:50:35.972Z,102018.55
2019-03-23T07:53:05.982Z,102025.16
2019-03-23T07:55:35.563Z,102032.57
2019-03-23T07:58:05.114Z,102030.34
2019-03-23T08:00:34.639Z,102033.63
2019-03-23T08:03:04.112Z,102030.27
2019-03-23T08:05:33.605Z,102036.30
2019-03-23T08:08:03.085Z,102032.96
2019-03-23T08:10:35.720Z,102039.25
2019-03-23T08:13:05.441Z,102040.04
2019-03-23T08:15:35.016Z,102039.44
2019-03-23T08:18:04.496Z,102038.59
2019-03-23T08:20:34.096Z,102036.09
2019-03-23T08:23:03.655Z,102041.61
2019-03-23T08:25:33.211Z,102040.75
2019-03-23T08:28:02.788Z,102046.24
2019-03-23T08:30:32.360Z,102044.81
2019-03-23T08:33:01.893Z,102040.08
2019-03-23T08:35:31.410Z,102045.00
2019-03-23T08:38:00.894Z,102046.04
2019-03-23T08:40:30.418Z,102048.46
2019-03-23T08:42:59.978Z,102041.83
2019-03-23T08:45:29.560Z,102046.48
2019-03-23T08:47:59.060Z,102048.38
2019-03-23T08:50:28.650Z,102046.46
2019-03-23T08:52:58.138Z,102043.94
2019-03-23T08:55:27.649Z,102050.78
2019-03-23T08:57:57.222Z,102042.48
2019-03-23T09:00:26.764Z,102040.77
2019-03-23T09:02:56.354Z,102044.83
2019-03-23T09:05:25.904Z,102047.79
2019-03-23T09:07:55.498Z,102043.83
2019-03-23T09:10:24.982Z,102050.04
2019-03-23T09:12:54.477Z,102055.47
2019-03-23T09:15:24.011Z,102061.42
2019-03-23T09:17:53.545Z,102049.17
2019-03-23T09:20:23.085Z,102056.53
2019-03-23T09:22:52.602Z,102063.34
2019-03-23T09:25:22.065Z,102055.49
2019-03-23T09:27:51.577Z,102058.67
2019-03-23T09:30:21.219Z,102058.55
2019-03-23T09:32:50.724Z,102060.63
2019-03-23T09:35:20.219Z,102060.80
2019-03-23T09:37:49.730Z,102052.92
2019-03-23T09:40:19.360Z,102056.94
2019-03-23T09:42:48.856Z,102060.33
2019-03-23T09:45:18.626Z,102064.27
2019-03-23T09:47:48.093Z,102060.78
2019-03-23T09:50:17.745Z,102063.08
2019-03-23T09:52:47.221Z,102060.45
2019-03-23T09:55:16.726Z,102061.66
2019-03-23T09:57:46.238Z,102062.34
2019-03-23T10:00:15.890Z,102064.12
2019-03-23T10:02:45.404Z,102058.47
2019-03-23T10:05:14.956Z,102056.97
2019-03-23T10:07:44.457Z,102067.34
2019-03-23T10:10:21.640Z,102056.98
2019-03-23T10:12:45.317Z,102065.17
2019-03-23T10:15:14.880Z,102056.50
2019-03-23T10:17:44.375Z,102057.77
2019-03-23T10:20:14.254Z,102056.00
2019-03-23T10:22:43.729Z,102050.60
2019-03-23T10:25:13.318Z,102058.81
2019-03-23T10:27:42.798Z,102058.44
2019-03-23T10:30:31.679Z,102061.70
2019-03-23T10:33:01.183Z,102065.77
2019-03-23T10:35:30.659Z,102062.96
2019-03-23T10:38:00.184Z,102063.13
2019-03-23T10:40:32.816Z,102065.60
2019-03-23T10:43:01.070Z,102064.47
2019-03-23T10:45:30.660Z,102061.95
2019-03-23T10:48:00.181Z,102063.00
2019-03-23T10:50:29.667Z,102070.17
2019-03-23T10:52:59.262Z,102066.61
2019-03-23T10:55:28.827Z,102063.84
2019-03-23T10:57:58.380Z,102065.47
2019-03-23T11:00:27.879Z,102066.86
2019-03-23T11:03:16.789Z,102069.88
2019-03-23T11:05:46.366Z,102062.95
2019-03-23T11:08:15.919Z,102060.73
2019-03-23T11:10:45.436Z,102058.30
2019-03-23T11:13:14.983Z,102056.92
2019-03-23T11:15:44.507Z,102056.92
2019-03-23T11:18:13.987Z,102056.67
2019-03-23T11:20:43.554Z,102063.59
2019-03-23T11:23:13.040Z,102064.72
2019-03-23T11:25:42.586Z,102067.48
2019-03-23T11:28:12.080Z,102069.50
2019-03-23T11:30:41.546Z,102071.77
2019-03-23T11:33:11.065Z,102071.77
2019-03-23T11:35:40.565Z,102062.96
2019-03-23T11:38:10.096Z,102072.39
2019-03-23T11:40:39.569Z,102070.51
2019-03-23T11:43:09.080Z,102071.69
2019-03-23T11:45:38.596Z,102072.06
2019-03-23T11:48:08.091Z,102075.41
2019-03-23T11:50:37.636Z,102074.83
2019-03-23T11:53:07.145Z,102079.81
2019-03-23T11:55:36.638Z,102075.92
2019-03-23T11:58:06.303Z,102070.89
2019-03-23T12:00:35.983Z,102076.09
2019-03-23T12:03:05.615Z,102075.16
2019-03-23T12:05:35.112Z,102069.80
2019-03-23T12:08:04.676Z,102077.43
2019-03-23T12:10:34.174Z,102075.92
2019-03-23T12:13:23.042Z,102075.79
2019-03-23T12:15:52.577Z,102079.81
2019-03-23T12:18:22.088Z,102086.05
2019-03-23T12:20:51.568Z,102081.02
2019-03-23T12:23:21.084Z,102085.03
2019-03-23T12:25:50.564Z,102081.59
2019-03-23T12:28:20.049Z,102074.80
2019-03-23T12:30:49.576Z,102074.28
2019-03-23T12:33:21.360Z,102071.73
2019-03-23T12:35:50.347Z,102079.62
2019-03-23T12:38:19.867Z,102072.35
2019-03-23T12:40:49.382Z,102074.77
2019-03-23T12:43:18.879Z,102072.44
2019-03-23T12:45:48.430Z,102077.13
2019-03-23T12:48:17.979Z,102076.23
2019-03-23T12:50:47.637Z,102084.25
2019-03-23T12:53:17.156Z,102077.95
2019-03-23T12:55:46.627Z,102068.33
2019-03-23T12:58:16.117Z,102072.23
2019-03-23T13:00:45.635Z,102066.52
2019-03-23T13:03:15.114Z,102068.82
2019-03-23T13:05:44.592Z,102069.25
2019-03-23T13:08:14.134Z,102065.23
2019-03-23T13:10:43.657Z,102061.80
2019-03-23T13:13:13.160Z,102062.45
2019-03-23T13:15:42.660Z,102057.78
2019-03-23T13:18:12.235Z,102061.39
2019-03-23T13:20:41.728Z,102060.31
2019-03-23T13:23:12.714Z,102066.42
2019-03-23T13:25:42.453Z,102063.72
2019-03-23T13:28:11.962Z,102057.98
2019-03-23T13:30:41.510Z,102061.48
2019-03-23T13:33:11.007Z,102058.95
2019-03-23T13:35:59.936Z,102050.61
2019-03-23T13:38:29.435Z,102049.22
2019-03-23T13:40:59.020Z,102051.44
2019-03-23T13:43:28.506Z,102045.64
2019-03-23T13:45:58.048Z,102044.81
2019-03-23T13:48:27.514Z,102043.42
2019-03-23T13:50:57.011Z,102044.73
2019-03-23T13:53:26.528Z,102038.52
2019-03-23T13:55:56.010Z,102038.17
2019-03-23T13:58:25.526Z,102038.66
2019-03-23T14:00:55.007Z,102038.09
2019-03-23T14:03:24.536Z,102029.41
2019-03-23T14:05:54.052Z,102026.00
2019-03-23T14:08:23.538Z,102026.72
2019-03-23T14:11:12.510Z,102016.56
2019-03-23T14:13:42.006Z,102023.59
2019-03-23T14:16:11.533Z,102020.88
2019-03-23T14:18:41.070Z,102017.66
2019-03-23T14:21:10.658Z,102024.42
2019-03-23T14:23:40.193Z,102018.44
2019-03-23T14:26:09.884Z,102015.22
2019-03-23T14:28:39.384Z,102014.55
2019-03-23T14:31:08.898Z,102021.27
2019-03-23T14:33:40.158Z,102018.72
2019-03-23T14:36:09.619Z,102022.58
2019-03-23T14:38:39.157Z,102013.88
2019-03-23T14:41:08.671Z,102007.64
2019-03-23T14:43:38.150Z,102003.70
2019-03-23T14:46:07.659Z,102008.59
2019-03-23T14:48:37.154Z,102011.19
2019-03-23T14:51:06.797Z,102004.70
2019-03-23T14:53:36.267Z,102007.05
2019-03-23T14:56:05.907Z,102009.52
2019-03-23T14:58:35.392Z,102000.93
2019-03-23T15:01:05.033Z,102010.66
2019-03-23T15:03:34.548Z,102013.53
2019-03-23T15:06:04.099Z,102007.25
2019-03-23T15:08:33.650Z,102005.73
2019-03-23T15:11:03.167Z,102005.58
2019-03-23T15:13:32.671Z,102010.42
2019-03-23T15:16:02.220Z,102010.38
2019-03-23T15:18:31.721Z,102006.64
2019-03-23T15:21:01.305Z,102005.20
2019-03-23T15:23:30.766Z,102012.59
2019-03-23T15:26:00.265Z,102013.92
2019-03-23T15:28:31.396Z,102006.92
2019-03-23T15:31:00.943Z,102011.00
2019-03-23T15:33:30.396Z,102006.30
2019-03-23T15:35:59.893Z,102011.28
2019-03-23T15:38:29.432Z,102015.98
2019-03-23T15:40:58.961Z,102000.72
2019-03-23T15:43:28.677Z,102004.09
2019-03-23T15:45:58.157Z,102010.98
2019-03-23T15:48:28.694Z,101999.56
2019-03-23T15:50:58.439Z,102007.23
2019-03-23T15:53:27.948Z,102013.77
2019-03-23T15:55:57.421Z,102004.56
2019-03-23T15:58:26.899Z,102006.68
2019-03-23T16:00:56.470Z,102009.87
2019-03-23T16:03:25.940Z,102007.27
2019-03-23T16:05:55.449Z,102009.06
2019-03-23T16:08:25.073Z,102006.11
2019-03-23T16:10:54.548Z,101998.78
2019-03-23T16:13:24.068Z,102002.45
2019-03-23T16:15:53.635Z,101997.31
2019-03-23T16:18:23.223Z,101999.12
2019-03-23T16:20:52.724Z,101997.89
2019-03-23T16:23:22.302Z,101999.91
2019-03-23T16:25:51.868Z,101995.56
2019-03-23T16:28:21.485Z,101995.38
2019-03-23T16:30:51.075Z,102003.22
2019-03-23T16:33:20.564Z,102001.92
2019-03-23T16:35:50.244Z,102000.84
2019-03-23T16:38:19.766Z,102006.73
2019-03-23T16:40:49.382Z,102008.68
2019-03-23T16:43:18.927Z,102006.80
2019-03-23T16:45:48.439Z,102007.70
2019-03-23T16:48:17.995Z,102006.41
2019-03-23T16:50:47.591Z,102010.63
2019-03-23T16:53:17.094Z,102008.99
2019-03-23T16:55:46.607Z,102008.25
2019-03-23T16:58:16.563Z,102001.08
2019-03-23T17:00:46.198Z,102002.77
2019-03-23T17:03:15.745Z,102003.91
2019-03-23T17:05:45.394Z,102007.02
2019-03-23T17:08:14.933Z,102005.70
2019-03-23T17:10:44.472Z,102006.59
2019-03-23T17:13:14.105Z,102003.58
2019-03-23T17:15:43.664Z,102003.92
2019-03-23T17:18:13.153Z,102005.61
2019-03-23T17:20:43.227Z,102000.16
2019-03-23T17:23:12.741Z,102001.85
2019-03-23T17:25:42.284Z,102004.13
2019-03-23T17:28:11.882Z,102001.45
2019-03-23T17:30:41.395Z,102007.89
2019-03-23T17:33:10.895Z,102001.33
2019-03-23T17:35:40.453Z,102003.60
2019-03-23T17:38:09.971Z,102005.63
2019-03-23T17:40:39.551Z,102011.02
2019-03-23T17:43:09.157Z,102004.16
2019-03-23T17:45:38.737Z,102014.74
2019-03-23T17:48:08.231Z,102009.53
2019-03-23T17:50:37.778Z,102009.59
2019-03-23T17:53:07.318Z,102019.94
2019-03-23T17:55:37.779Z,102020.58
2019-03-23T17:58:07.357Z,102023.16
2019-03-23T18:00:36.892Z,102024.62
2019-03-23T18:03:06.420Z,102032.45
2019-03-23T18:05:36.007Z,102030.31
2019-03-23T18:08:05.730Z,102032.34
2019-03-23T18:10:35.277Z,102034.03
2019-03-23T18:13:04.887Z,102034.12
2019-03-23T18:15:34.356Z,102027.83
2019-03-23T18:18:03.864Z,102031.48
2019-03-23T18:20:33.374Z,102031.78
2019-03-23T18:23:02.936Z,102029.91
2019-03-23T18:25:32.521Z,102036.08
2019-03-23T18:28:02.183Z,102029.21
2019-03-23T18:30:38.393Z,102030.34
2019-03-23T18:33:08.089Z,102029.81
2019-03-23T18:35:37.702Z,102032.09
2019-03-23T18:38:07.504Z,102029.31
2019-03-23T18:40:37.486Z,102033.80
2019-03-23T18:43:07.520Z,102030.78
2019-03-23T18:45:37.269Z,102031.09
2019-03-23T18:48:07.147Z,102026.44
2019-03-23T18:50:36.747Z,102031.72
2019-03-23T18:53:06.391Z,102034.83
2019-03-23T18:55:36.023Z,102038.14
2019-03-23T18:58:05.907Z,102036.27
2019-03-23T19:00:41.466Z,102045.70
2019-03-23T19:03:30.239Z,102034.84
2019-03-23T19:05:59.794Z,102042.77
2019-03-23T19:08:29.336Z,102044.70
2019-03-23T19:10:58.822Z,102049.73
2019-03-23T19:13:37.585Z,102050.63
2019-03-23T19:15:59.627Z,102049.56
2019-03-23T19:18:29.265Z,102048.48
2019-03-23T19:20:58.744Z,102052.13
2019-03-23T19:23:28.247Z,102053.27
2019-03-23T19:25:57.722Z,102047.23
2019-03-23T19:28:27.242Z,102055.28
2019-03-23T19:30:58.257Z,102049.50
2019-03-23T19:33:27.867Z,102054.78
2019-03-23T19:35:57.363Z,102060.31
2019-03-23T19:38:26.952Z,102058.43
2019-03-23T19:40:56.431Z,102052.64
2019-03-23T19:43:25.947Z,102053.19
2019-03-23T19:45:55.525Z,102051.01
2019-03-23T19:48:25.156Z,102052.14
2019-03-23T19:50:54.715Z,102054.08
2019-03-23T19:53:24.310Z,102054.66
2019-03-23T19:55:53.872Z,102054.66
2019-03-23T19:58:23.408Z,102055.54
2019-03-23T20:00:53.013Z,102059.69
2019-03-23T20:03:22.486Z,102057.72
2019-03-23T20:05:52.103Z,102058.30
2019-03-23T20:08:21.570Z,102063.01
2019-03-23T20:10:51.034Z,102066.61
2019-03-23T20:13:20.573Z,102058.94
2019-03-23T20:15:50.102Z,102060.32
2019-03-23T20:18:19.595Z,102066.98
2019-03-23T20:20:49.100Z,102068.92
2019-03-23T20:23:18.619Z,102065.35
2019-03-23T20:25:48.098Z,102064.59
2019-03-23T20:28:19.051Z,102058.56
2019-03-23T20:30:48.632Z,102057.47
2019-03-23T20:33:19.612Z,102052.23
2019-03-23T20:35:49.437Z,102053.12
2019-03-23T20:38:18.953Z,102050.67
2019-03-23T20:40:48.477Z,102046.58
2019-03-23T20:43:17.998Z,102048.03
2019-03-23T20:45:48.015Z,102042.55
2019-03-23T20:48:18.328Z,102053.11
2019-03-23T20:50:48.225Z,102050.92
2019-03-23T20:53:19.360Z,102043.25
2019-03-23T20:55:48.894Z,102044.13
2019-03-23T20:58:18.412Z,102045.55
2019-03-23T21:00:47.971Z,102045.62
2019-03-23T21:03:17.468Z,102048.95
2019-03-23T21:05:46.955Z,102043.74
2019-03-23T21:08:16.519Z,102050.41
2019-03-23T21:10:46.156Z,102046.59
2019-03-23T21:13:15.741Z,102042.45
2019-03-23T21:15:45.288Z,102035.86
2019-03-23T21:18:14.751Z,102025.67
2019-03-23T21:20:44.245Z,102030.95
2019-03-23T21:23:13.793Z,102029.87
2019-03-23T21:25:43.304Z,102028.81
2019-03-23T21:28:15.821Z,102023.58
2019-03-23T21:30:45.331Z,102015.03
2019-03-23T21:33:14.832Z,102016.74
2019-03-23T21:35:44.336Z,102009.87
2019-03-23T21:38:13.821Z,102011.84
2019-03-23T21:40:43.465Z,102007.44
2019-03-23T21:43:12.938Z,102008.56
2019-03-23T21:45:42.583Z,102000.27
2019-03-23T21:48:12.101Z,102007.80
2019-03-23T21:50:47.491Z,102008.69
2019-03-23T21:53:12.895Z,101997.38
2019-03-23T21:55:42.373Z,101998.25
2019-03-23T21:58:11.950Z,102001.30
2019-03-23T22:00:41.535Z,102004.62
2019-03-23T22:03:11.015Z,101996.07
2019-03-23T22:05:40.600Z,101994.69
2019-03-23T22:08:10.173Z,101995.81
2019-03-23T22:10:39.799Z,101997.45
2019-03-23T22:13:09.372Z,101987.27
2019-03-23T22:15:38.997Z,101986.47
2019-03-23T22:18:08.549Z,101984.26
2019-03-23T22:20:38.050Z,101978.73
2019-03-23T22:23:07.629Z,101983.13
2019-03-23T22:25:37.107Z,101980.11
2019-03-23T22:28:06.751Z,101976.54
2019-03-23T22:30:36.374Z,101981.49
2019-03-23T22:33:05.996Z,101984.51
2019-03-23T22:35:35.723Z,101984.26
2019-03-23T22:38:05.440Z,101977.34
2019-03-23T22:40:35.027Z,101977.92
2019-03-23T22:43:04.572Z,101969.05
2019-03-23T22:45:35.789Z,101969.05
2019-03-23T22:48:05.517Z,101968.80
2019-03-23T22:50:35.110Z,101967.67
2019-03-23T22:53:04.686Z,101966.87
2019-03-23T22:55:34.191Z,101960.50
2019-03-23T22:58:03.706Z,101958.57
2019-03-23T23:00:43.863Z,101956.11
2019-03-23T23:03:13.640Z,101960.25
2019-03-23T23:05:43.317Z,101955.85
2019-03-23T23:08:12.977Z,101951.70
2019-03-23T23:10:42.522Z,101947.31
2019-03-23T23:13:12.211Z,101942.91
2019-03-23T23:15:41.864Z,101945.17
2019-03-23T23:18:11.438Z,101938.84
2019-03-23T23:20:40.941Z,101938.85
2019-03-23T23:23:10.416Z,101933.91
2019-03-23T23:25:39.920Z,101932.52
2019-03-23T23:28:09.520Z,101920.12
2019-03-23T23:30:39.010Z,101927.29
2019-03-23T23:33:08.556Z,101927.04
2019-03-23T23:35:38.038Z,101924.02
2019-03-23T23:38:07.522Z,101919.88
2019-03-23T23:40:37.036Z,101923.77
2019-03-23T23:43:06.570Z,101921.59
2019-03-23T23:45:36.131Z,101924.09
2019-03-23T23:48:05.808Z,101924.97
2019-03-23T23:50:35.316Z,101915.84
2019-03-23T23:53:04.943Z,101917.23
2019-03-23T23:55:34.568Z,101917.81
2019-03-23T23:58:04.225Z,101919.74
